createdAt,value
2023-07-24T00:02:15.594Z,99707.03
2023-07-24T00:04:45.477Z,99707.38
2023-07-24T00:07:14.220Z,99702.13
2023-07-24T00:09:42.629Z,99704.66
2023-07-24T00:12:11.238Z,99707.16
2023-07-24T00:14:39.779Z,99700.97
2023-07-24T00:17:08.269Z,99698.34
2023-07-24T00:19:38.030Z,99703.22
2023-07-24T00:22:08.245Z,99692.88
2023-07-24T00:24:36.726Z,99699.66
2023-07-24T00:27:05.291Z,99691.78
2023-07-24T00:29:33.560Z,99693.94
2023-07-24T00:32:01.795Z,99682.53
2023-07-24T00:34:30.383Z,99684.19
2023-07-24T00:36:58.649Z,99683.97
2023-07-24T00:39:30.802Z,99682.03
2023-07-24T00:41:59.204Z,99670.47
2023-07-24T00:44:27.575Z,99668.94
2023-07-24T00:46:57.047Z,99675.03
2023-07-24T00:49:25.758Z,99663.69
2023-07-24T00:51:54.866Z,99670.34
2023-07-24T00:54:24.556Z,99660.72
2023-07-24T00:56:54.567Z,99658.00
2023-07-24T00:59:24.165Z,99653.59
2023-07-24T01:01:52.612Z,99652.38
2023-07-24T01:04:21.605Z,99654.16
2023-07-24T01:06:50.390Z,99650.72
2023-07-24T01:09:18.625Z,99646.44
2023-07-24T01:11:50.295Z,99646.53
2023-07-24T01:14:25.141Z,99640.81
2023-07-24T01:16:56.732Z,99639.88
2023-07-24T01:19:38.470Z,99644.38
2023-07-24T01:22:16.042Z,99630.69
2023-07-24T01:25:06.433Z,99625.59
2023-07-24T01:27:36.154Z,99619.25
2023-07-24T01:30:04.629Z,99621.53
2023-07-24T01:32:33.038Z,99617.00
2023-07-24T01:35:01.397Z,99606.53
2023-07-24T01:37:32.243Z,99609.97
2023-07-24T01:40:01.593Z,99605.56
2023-07-24T01:42:30.221Z,99604.50
2023-07-24T01:45:07.083Z,99598.91
2023-07-24T01:47:35.615Z,99599.84
2023-07-24T01:50:03.908Z,99598.78
2023-07-24T01:52:32.308Z,99599.63
2023-07-24T01:55:00.778Z,99592.22
2023-07-24T01:57:29.249Z,99597.72
2023-07-24T01:59:57.967Z,99593.66
2023-07-24T02:02:27.692Z,99598.31
2023-07-24T02:04:57.156Z,99582.47
2023-07-24T02:07:25.457Z,99586.41
2023-07-24T02:09:53.749Z,99585.06
2023-07-24T02:12:22.405Z,99585.19
2023-07-24T02:14:52.664Z,99577.94
2023-07-24T02:17:21.645Z,99581.28
2023-07-24T02:19:52.112Z,99588.53
2023-07-24T02:22:20.411Z,99583.06
2023-07-24T02:24:49.011Z,99576.03
2023-07-24T02:27:28.003Z,99575.94
2023-07-24T02:29:59.677Z,99565.66
2023-07-24T02:32:28.186Z,99568.41
2023-07-24T02:34:57.809Z,99568.66
2023-07-24T02:37:26.128Z,99558.88
2023-07-24T02:39:54.605Z,99564.94
2023-07-24T02:42:22.979Z,99563.03
2023-07-24T02:44:54.305Z,99562.69
2023-07-24T02:47:23.562Z,99544.34
2023-07-24T02:49:51.940Z,99549.59
2023-07-24T02:52:21.904Z,99548.41
2023-07-24T02:54:50.237Z,99547.31
2023-07-24T02:57:18.636Z,99543.16
2023-07-24T02:59:47.698Z,99543.16
2023-07-24T03:02:16.345Z,99546.25
2023-07-24T03:04:44.883Z,99543.19
2023-07-24T03:07:14.206Z,99540.41
2023-07-24T03:09:43.796Z,99543.19
2023-07-24T03:12:12.645Z,99542.44
2023-07-24T03:14:41.112Z,99550.06
2023-07-24T03:17:09.671Z,99543.19
2023-07-24T03:19:38.129Z,99539.56
2023-07-24T03:22:06.880Z,99541.25
2023-07-24T03:24:36.144Z,99534.94
2023-07-24T03:27:07.620Z,99530.88
2023-07-24T03:29:35.863Z,99532.69
2023-07-24T03:32:04.744Z,99537.69
2023-07-24T03:34:32.996Z,99529.09
2023-07-24T03:37:01.297Z,99530.63
2023-07-24T03:39:29.998Z,99530.53
2023-07-24T03:41:58.657Z,99532.91
2023-07-24T03:44:30.144Z,99529.09
2023-07-24T03:46:58.880Z,99534.44
2023-07-24T03:49:27.571Z,99524.69
2023-07-24T03:51:55.750Z,99528.50
2023-07-24T03:54:24.166Z,99530.88
2023-07-24T03:56:53.405Z,99530.47
2023-07-24T03:59:21.868Z,99536.31
2023-07-24T04:01:52.142Z,99534.22
2023-07-24T04:04:20.408Z,99533.22
2023-07-24T04:06:50.230Z,99532.03
2023-07-24T04:09:18.477Z,99534.06
2023-07-24T04:11:47.502Z,99529.81
2023-07-24T04:14:16.143Z,99533.47
2023-07-24T04:16:44.615Z,99535.22
2023-07-24T04:19:14.644Z,99530.84
2023-07-24T04:21:43.083Z,99544.69
2023-07-24T04:24:11.648Z,99535.03
2023-07-24T04:26:40.848Z,99532.28
2023-07-24T04:29:09.641Z,99535.59
2023-07-24T04:31:37.875Z,99543.25
2023-07-24T04:34:07.650Z,99548.34
2023-07-24T04:36:37.319Z,99546.94
2023-07-24T04:39:05.660Z,99547.19
2023-07-24T04:41:34.416Z,99550.53
2023-07-24T04:44:03.724Z,99549.19
2023-07-24T04:46:32.588Z,99549.09
2023-07-24T04:49:01.301Z,99548.34
2023-07-24T04:51:29.777Z,99549.56
2023-07-24T04:53:59.434Z,99546.34
2023-07-24T04:56:27.981Z,99554.06
2023-07-24T04:58:56.768Z,99555.84
2023-07-24T05:03:59.123Z,99554.66
2023-07-24T05:06:27.557Z,99550.16
2023-07-24T05:08:56.212Z,99556.03
2023-07-24T05:11:24.496Z,99562.66
2023-07-24T05:13:52.730Z,99578.03
2023-07-24T05:16:21.217Z,99562.75
2023-07-24T05:18:49.475Z,99565.16
2023-07-24T05:21:19.110Z,99566.44
2023-07-24T05:23:47.752Z,99567.97
2023-07-24T05:26:16.948Z,99581.69
2023-07-24T05:28:45.294Z,99580.59
2023-07-24T05:31:15.003Z,99581.19
2023-07-24T05:33:43.369Z,99585.34
2023-07-24T05:36:11.893Z,99587.84
2023-07-24T05:38:41.909Z,99590.38
2023-07-24T05:41:10.589Z,99585.47
2023-07-24T05:43:39.036Z,99595.97
2023-07-24T05:46:07.395Z,99594.88
2023-07-24T05:48:35.781Z,99591.06
2023-07-24T05:51:04.581Z,99590.94
2023-07-24T05:53:32.943Z,99598.78
2023-07-24T05:56:03.723Z,99603.09
2023-07-24T05:58:32.358Z,99603.81
2023-07-24T06:01:00.611Z,99600.38
2023-07-24T06:03:29.942Z,99603.94
2023-07-24T06:05:58.533Z,99603.69
2023-07-24T06:08:28.303Z,99611.88
2023-07-24T06:10:56.859Z,99614.00
2023-07-24T06:13:26.593Z,99621.16
2023-07-24T06:15:56.288Z,99618.72
2023-07-24T06:18:24.604Z,99619.78
2023-07-24T06:20:55.142Z,99617.94
2023-07-24T06:23:23.407Z,99610.03
2023-07-24T06:25:53.011Z,99613.81
2023-07-24T06:28:21.508Z,99616.97
2023-07-24T06:30:54.560Z,99614.59
2023-07-24T06:33:23.782Z,99625.22
2023-07-24T06:35:53.023Z,99622.50
2023-07-24T06:38:22.864Z,99634.50
2023-07-24T06:40:51.639Z,99632.53
2023-07-24T06:43:20.058Z,99633.78
2023-07-24T06:45:48.488Z,99638.72
2023-07-24T06:48:18.384Z,99633.94
2023-07-24T06:50:46.777Z,99642.56
2023-07-24T06:53:15.593Z,99643.13
2023-07-24T06:55:44.358Z,99634.69
2023-07-24T06:58:13.482Z,99646.13
2023-07-24T07:00:41.818Z,99644.03
2023-07-24T07:03:10.201Z,99641.94
2023-07-24T07:05:40.122Z,99638.59
2023-07-24T07:08:08.464Z,99652.19
2023-07-24T07:10:38.152Z,99652.63
2023-07-24T07:13:06.687Z,99647.69
2023-07-24T07:15:35.044Z,99650.88
2023-07-24T07:18:03.398Z,99645.28
2023-07-24T07:20:31.714Z,99644.09
2023-07-24T07:23:01.496Z,99652.59
2023-07-24T07:25:29.845Z,99645.72
2023-07-24T07:27:58.410Z,99653.03
2023-07-24T07:30:26.764Z,99669.94
2023-07-24T07:32:57.633Z,99672.16
2023-07-24T07:35:25.935Z,99668.34
2023-07-24T07:37:57.053Z,99671.63
2023-07-24T07:40:28.115Z,99674.81
2023-07-24T07:42:56.779Z,99676.31
2023-07-24T07:45:25.585Z,99673.00
2023-07-24T07:47:54.635Z,99677.44
2023-07-24T07:50:23.082Z,99672.38
2023-07-24T07:52:52.890Z,99678.94
2023-07-24T07:55:21.612Z,99674.25
2023-07-24T07:57:51.360Z,99674.94
2023-07-24T08:00:20.242Z,99678.00
2023-07-24T08:02:48.636Z,99677.16
2023-07-24T08:05:21.339Z,99680.41
2023-07-24T08:07:50.050Z,99682.09
2023-07-24T08:10:18.562Z,99670.31
2023-07-24T08:12:46.921Z,99682.25
2023-07-24T08:15:16.819Z,99685.25
2023-07-24T08:17:45.930Z,99674.09
2023-07-24T08:20:14.371Z,99677.28
2023-07-24T08:22:42.955Z,99681.22
2023-07-24T08:25:11.566Z,99684.56
2023-07-24T08:27:54.411Z,99695.19
2023-07-24T08:30:30.999Z,99701.78
2023-07-24T08:33:00.615Z,99695.59
2023-07-24T08:35:29.315Z,99697.28
2023-07-24T08:37:57.909Z,99701.66
2023-07-24T08:40:26.326Z,99698.91
2023-07-24T08:42:55.652Z,99695.72
2023-07-24T08:45:25.772Z,99692.50
2023-07-24T08:47:55.680Z,99695.81
2023-07-24T08:50:25.640Z,99701.78
2023-07-24T08:52:54.330Z,99703.19
2023-07-24T08:55:23.919Z,99707.63
2023-07-24T08:57:52.145Z,99709.44
2023-07-24T09:00:21.029Z,99706.84
2023-07-24T09:02:49.428Z,99714.75
2023-07-24T09:05:19.577Z,99715.56
2023-07-24T09:07:49.407Z,99714.00
2023-07-24T09:10:18.103Z,99716.84
2023-07-24T09:12:46.843Z,99707.47
2023-07-24T09:15:15.570Z,99710.53
2023-07-24T09:17:51.616Z,99705.84
2023-07-24T09:20:32.161Z,99713.59
2023-07-24T09:23:15.429Z,99731.63
2023-07-24T09:25:46.408Z,99734.69
2023-07-24T09:28:15.513Z,99741.88
2023-07-24T09:30:53.486Z,99744.19
2023-07-24T09:33:21.757Z,99749.09
2023-07-24T09:36:01.607Z,99745.56
2023-07-24T09:38:29.905Z,99754.00
2023-07-24T09:40:59.431Z,99742.47
2023-07-24T09:46:01.040Z,99760.09
2023-07-24T09:51:03.116Z,99767.81
2023-07-24T09:53:35.866Z,99778.44
2023-07-24T09:56:06.231Z,99779.28
2023-07-24T09:58:36.430Z,99781.34
2023-07-24T10:01:07.194Z,99788.28
2023-07-24T10:03:37.767Z,99786.19
2023-07-24T10:06:11.778Z,99782.56
2023-07-24T10:08:41.709Z,99795.91
2023-07-24T10:11:10.872Z,99794.28
2023-07-24T10:13:40.148Z,99789.84
2023-07-24T10:16:09.081Z,99791.19
2023-07-24T10:18:43.844Z,99799.56
2023-07-24T10:21:14.080Z,99805.91
2023-07-24T10:23:44.133Z,99810.97
2023-07-24T10:26:12.880Z,99813.53
2023-07-24T10:28:43.247Z,99827.25
2023-07-24T10:31:22.939Z,99823.53
2023-07-24T10:33:52.518Z,99833.91
2023-07-24T10:36:24.471Z,99834.38
2023-07-24T10:38:56.199Z,99834.66
2023-07-24T10:41:24.807Z,99841.31
2023-07-24T10:44:01.092Z,99838.91
2023-07-24T10:46:39.848Z,99840.03
2023-07-24T10:49:10.017Z,99849.88
2023-07-24T10:51:42.102Z,99856.81
2023-07-24T10:54:10.440Z,99852.78
2023-07-24T10:56:39.129Z,99855.59
2023-07-24T10:59:08.123Z,99862.94
2023-07-24T11:01:36.747Z,99866.09
2023-07-24T11:04:06.487Z,99870.13
2023-07-24T11:06:35.143Z,99872.59
2023-07-24T11:09:05.094Z,99868.19
2023-07-24T11:11:35.852Z,99871.53
2023-07-24T11:14:05.666Z,99871.44
2023-07-24T11:16:34.782Z,99884.09
2023-07-24T11:19:03.548Z,99885.38
2023-07-24T11:21:32.297Z,99877.13
2023-07-24T11:24:01.114Z,99887.00
2023-07-24T11:26:30.832Z,99891.59
2023-07-24T11:29:00.357Z,99899.78
2023-07-24T11:31:28.921Z,99888.97
2023-07-24T11:33:58.765Z,99888.00
2023-07-24T11:36:27.093Z,99896.03
2023-07-24T11:38:55.661Z,99900.44
2023-07-24T11:41:24.245Z,99898.88
2023-07-24T11:43:53.932Z,99899.88
2023-07-24T11:46:26.717Z,99897.31
2023-07-24T11:48:57.903Z,99909.75
2023-07-24T11:51:28.959Z,99902.50
2023-07-24T11:54:08.753Z,99916.25
2023-07-24T11:56:37.765Z,99912.38
2023-07-24T11:59:15.025Z,99916.03
2023-07-24T12:01:43.860Z,99920.63
2023-07-24T12:04:12.928Z,99911.31
2023-07-24T12:06:41.304Z,99919.22
2023-07-24T12:09:09.692Z,99911.84
2023-07-24T12:11:45.311Z,99910.91
2023-07-24T12:14:16.155Z,99918.97
2023-07-24T12:16:44.779Z,99921.97
2023-07-24T12:19:13.086Z,99918.63
2023-07-24T12:21:41.341Z,99932.97
2023-07-24T12:24:10.066Z,99925.47
2023-07-24T12:26:38.279Z,99935.91
2023-07-24T12:29:06.803Z,99920.22
2023-07-24T12:31:37.116Z,99923.25
2023-07-24T12:34:05.783Z,99928.53
2023-07-24T12:36:33.992Z,99931.44
2023-07-24T12:39:02.256Z,99927.84
2023-07-24T12:41:30.674Z,99930.34
2023-07-24T12:44:01.009Z,99932.28
2023-07-24T12:46:29.641Z,99931.75
2023-07-24T12:48:59.383Z,99927.28
2023-07-24T12:51:27.842Z,99936.34
2023-07-24T12:54:05.205Z,99922.28
2023-07-24T12:56:44.418Z,99938.69
2023-07-24T12:59:12.964Z,99935.88
2023-07-24T13:01:41.308Z,99929.25
2023-07-24T13:04:11.569Z,99934.34
2023-07-24T13:06:40.127Z,99942.44
2023-07-24T13:09:10.054Z,99946.34
2023-07-24T13:11:38.304Z,99946.63
2023-07-24T13:14:06.594Z,99956.63
2023-07-24T13:16:35.035Z,99943.41
2023-07-24T13:19:03.747Z,99941.44
2023-07-24T13:21:33.756Z,99952.75
2023-07-24T13:24:02.103Z,99944.09
2023-07-24T13:26:30.658Z,99952.16
2023-07-24T13:28:59.331Z,99945.88
2023-07-24T13:31:29.824Z,99945.47
2023-07-24T13:33:58.284Z,99953.91
2023-07-24T13:36:28.724Z,99955.19
2023-07-24T13:38:58.597Z,99951.41
2023-07-24T13:41:27.081Z,99957.66
2023-07-24T13:43:55.604Z,99964.22
2023-07-24T13:46:24.020Z,99960.19
2023-07-24T13:48:53.662Z,99972.81
2023-07-24T13:51:22.050Z,99956.16
2023-07-24T13:53:52.925Z,99964.34
2023-07-24T13:56:24.347Z,99959.41
2023-07-24T13:58:52.554Z,99961.91
2023-07-24T14:01:21.025Z,99966.56
2023-07-24T14:03:49.471Z,99960.41
2023-07-24T14:06:18.118Z,99962.78
2023-07-24T14:08:46.543Z,99964.06
2023-07-24T14:11:14.929Z,99956.97
2023-07-24T14:13:46.266Z,99964.59
2023-07-24T14:16:14.747Z,99968.94
2023-07-24T14:18:43.180Z,99969.88
2023-07-24T14:21:11.602Z,99962.66
2023-07-24T14:23:39.854Z,99972.28
2023-07-24T14:26:08.423Z,99969.66
2023-07-24T14:28:36.738Z,99976.19
2023-07-24T14:31:06.755Z,99981.69
2023-07-24T14:33:35.021Z,99981.56
2023-07-24T14:36:04.109Z,99978.91
2023-07-24T14:38:32.389Z,99975.25
2023-07-24T14:41:00.980Z,99973.34
2023-07-24T14:43:29.308Z,99972.34
2023-07-24T14:45:57.881Z,99968.94
2023-07-24T14:48:27.542Z,99977.41
2023-07-24T14:50:56.150Z,99975.06
2023-07-24T14:53:24.786Z,99974.25
2023-07-24T14:55:53.147Z,99979.81
2023-07-24T14:58:21.488Z,99985.63
2023-07-24T15:00:50.367Z,99985.34
2023-07-24T15:03:18.902Z,99986.22
2023-07-24T15:05:48.714Z,99980.94
2023-07-24T15:08:17.904Z,99984.97
2023-07-24T15:10:46.369Z,99984.53
2023-07-24T15:13:16.006Z,99980.91
2023-07-24T15:15:44.836Z,99985.94
2023-07-24T15:18:13.192Z,99988.69
2023-07-24T15:20:41.663Z,99983.94
2023-07-24T15:23:11.821Z,99982.81
2023-07-24T15:25:40.174Z,99988.25
2023-07-24T15:28:08.519Z,99981.19
2023-07-24T15:30:36.962Z,99982.28
2023-07-24T15:33:05.455Z,99982.72
2023-07-24T15:35:33.856Z,99986.47
2023-07-24T15:38:04.597Z,99982.44
2023-07-24T15:40:35.270Z,99983.94
2023-07-24T15:43:05.376Z,99993.09
2023-07-24T15:45:33.803Z,99993.38
2023-07-24T15:48:02.342Z,99992.13
2023-07-24T15:50:30.676Z,99996.56
2023-07-24T15:52:59.202Z,99991.22
2023-07-24T15:55:27.606Z,99991.50
2023-07-24T15:57:58.510Z,99991.13
2023-07-24T16:00:28.377Z,99995.41
2023-07-24T16:02:56.758Z,99992.41
2023-07-24T16:05:25.979Z,100003.09
2023-07-24T16:07:54.368Z,99995.50
2023-07-24T16:10:23.916Z,100016.03
2023-07-24T16:12:52.300Z,100010.63
2023-07-24T16:15:44.104Z,100009.09
2023-07-24T16:18:10.626Z,100005.81
2023-07-24T16:20:39.002Z,100013.09
2023-07-24T16:23:09.308Z,100021.72
2023-07-24T16:25:37.560Z,100029.63
2023-07-24T16:28:06.030Z,100019.97
2023-07-24T16:30:36.462Z,100025.22
2023-07-24T16:33:04.960Z,100026.69
2023-07-24T16:35:33.690Z,100023.56
2023-07-24T16:38:16.009Z,100031.09
2023-07-24T16:40:45.836Z,100031.47
2023-07-24T16:43:14.501Z,100037.41
2023-07-24T16:46:04.308Z,100036.34
2023-07-24T16:48:33.627Z,100039.69
2023-07-24T16:51:01.925Z,100034.78
2023-07-24T16:53:30.477Z,100027.75
2023-07-24T16:55:58.751Z,100035.50
2023-07-24T16:58:27.080Z,100029.78
2023-07-24T17:00:57.012Z,100036.06
2023-07-24T17:03:25.777Z,100038.13
2023-07-24T17:06:52.154Z,100042.44
2023-07-24T17:24:29.871Z,100049.72
2023-07-24T17:32:00.801Z,100051.00
2023-07-24T17:39:17.674Z,100059.53
2023-07-24T17:53:23.049Z,100073.91
2023-07-24T18:00:03.802Z,100086.03
2023-07-24T18:06:59.835Z,100089.50
2023-07-24T18:13:45.748Z,100095.53
2023-07-24T18:20:28.743Z,100101.03
2023-07-24T18:34:08.785Z,100100.94
2023-07-24T18:40:50.759Z,100110.69
2023-07-24T18:47:32.872Z,100112.03
2023-07-24T18:54:15.715Z,100114.78
2023-07-24T19:04:26.673Z,100130.38
2023-07-24T19:14:42.669Z,100135.25
2023-07-24T19:21:25.693Z,100149.00
2023-07-24T19:28:06.740Z,100153.91
2023-07-24T19:34:51.649Z,100153.09
2023-07-24T19:45:02.666Z,100158.88
2023-07-24T19:51:45.602Z,100169.56
2023-07-24T19:58:33.750Z,100181.81
2023-07-24T20:05:16.623Z,100196.66
2023-07-24T20:12:08.616Z,100195.59
2023-07-24T20:18:52.584Z,100199.63
2023-07-24T20:29:03.558Z,100230.22
2023-07-24T20:35:44.606Z,100247.78
2023-07-24T20:45:57.605Z,100259.69
2023-07-24T20:52:39.537Z,100265.69
2023-07-24T20:59:22.530Z,100276.09
2023-07-24T21:20:11.480Z,100283.91
2023-07-24T21:26:53.477Z,100289.53
2023-07-24T21:33:37.488Z,100295.75
2023-07-24T21:40:20.494Z,100303.19
2023-07-24T21:47:01.489Z,100295.44
2023-07-24T21:57:14.480Z,100305.00
2023-07-24T22:03:56.463Z,100299.59
2023-07-24T22:10:45.460Z,100306.97
2023-07-24T22:17:28.454Z,100309.66
2023-07-24T22:24:11.434Z,100306.69
2023-07-24T22:30:53.470Z,100329.09
2023-07-24T22:37:35.439Z,100329.69
2023-07-24T22:47:48.391Z,100337.06
2023-07-24T22:54:31.410Z,100330.69
2023-07-24T23:01:14.465Z,100336.66
2023-07-24T23:07:58.024Z,100358.47
2023-07-24T23:25:13.352Z,100341.13
2023-07-24T23:31:56.288Z,100351.41
2023-07-24T23:38:37.334Z,100351.41
2023-07-24T23:55:46.257Z,100352.53
